Time;durP1;ratioP1;P1;durP2;ratioP2;P2;SDS_P1;SDS_P2;PMS_P1;PMS_P2;Temp;Humidity;BMP_temperature;BMP_pressure;BME280_temperature;BME280_humidity;BME280_pressure;Samples;Min_cycle;Max_cycle;Signal;HPM_P1;HPM_P2
2023/02/23 00:00:31;;;;;;;104.60;41.63;;;;;;;17.11;100.00;101141.13;5097913;28;20337;-53
2023/02/23 00:03:00;;;;;;;102.60;41.90;;;;;;;17.34;100.00;101145.72;5098721;28;20269;-49
2023/02/23 00:05:28;;;;;;;106.70;41.23;;;;;;;17.43;100.00;101146.19;5099817;28;20360;-53
2023/02/23 00:07:54;;;;;;;101.23;42.00;;;;;;;17.50;100.00;101144.19;5093698;28;20269;-50
2023/02/23 00:10:20;;;;;;;109.47;41.50;;;;;;;17.43;100.00;101147.03;5103814;28;20284;-54
2023/02/23 00:12:50;;;;;;;99.73;41.87;;;;;;;17.51;100.00;101155.84;5096500;28;20055;-51
2023/02/23 00:15:16;;;;;;;110.23;41.17;;;;;;;17.44;100.00;101154.09;5099498;28;20258;-51
2023/02/23 00:17:41;;;;;;;103.90;41.40;;;;;;;17.56;100.00;101154.09;5098108;28;20281;-56
2023/02/23 00:20:10;;;;;;;106.93;43.47;;;;;;;17.45;100.00;101152.19;5100724;28;20032;-50
2023/02/23 00:22:39;;;;;;;106.57;42.87;;;;;;;17.37;100.00;101141.72;5099704;28;20084;-54
2023/02/23 00:25:11;;;;;;;103.63;42.13;;;;;;;17.31;100.00;101152.44;5096378;28;20304;-52
2023/02/23 00:27:42;;;;;;;102.37;41.20;;;;;;;17.02;100.00;101146.81;5097510;28;20266;-47
2023/02/23 00:30:10;;;;;;;99.40;40.17;;;;;;;17.20;100.00;101143.25;5102943;28;20268;-51
2023/02/23 00:32:36;;;;;;;99.50;41.03;;;;;;;17.15;100.00;101140.41;5098232;28;20269;-54
2023/02/23 00:35:01;;;;;;;111.63;42.53;;;;;;;17.16;100.00;101142.03;5081324;28;20303;-50
2023/02/23 00:37:27;;;;;;;109.93;43.53;;;;;;;16.72;100.00;101138.72;5099587;28;20119;-50
2023/02/23 00:39:55;;;;;;;98.65;41.30;;;;;;;16.75;100.00;101139.09;5096178;28;20032;-52
2023/02/23 00:42:21;;;;;;;111.20;43.73;;;;;;;17.02;100.00;101138.72;5106981;28;20032;-50
2023/02/23 00:44:48;;;;;;;123.55;43.95;;;;;;;17.02;100.00;101133.31;5081157;28;20332;-52
2023/02/23 00:47:13;;;;;;;99.57;40.63;;;;;;;16.46;100.00;101136.16;5079617;28;20040;-52
2023/02/23 00:49:38;;;;;;;107.80;43.73;;;;;;;16.65;100.00;101135.28;5097988;28;20039;-50
2023/02/23 00:52:04;;;;;;;100.13;40.00;;;;;;;16.91;100.00;101142.19;5095949;28;20308;-51
2023/02/23 00:54:30;;;;;;;109.47;41.15;;;;;;;17.05;100.00;101132.03;5097405;28;20078;-54
2023/02/23 00:56:55;;;;;;;114.70;43.67;;;;;;;16.88;100.00;101137.25;5099752;28;20032;-54
2023/02/23 00:59:21;;;;;;;101.78;41.47;;;;;;;17.05;100.00;101138.25;5100386;28;20036;-51
2023/02/23 01:01:47;;;;;;;101.20;40.63;;;;;;;17.12;100.00;101148.16;5092844;28;20036;-48
2023/02/23 01:04:13;;;;;;;105.00;42.60;;;;;;;17.28;100.00;101143.94;5096776;28;20036;-50
2023/02/23 01:06:40;;;;;;;102.45;41.47;;;;;;;16.97;100.00;101130.47;5095900;28;20098;-53
2023/02/23 01:09:07;;;;;;;;;;;;;;;17.18;100.00;101139.97;5079824;28;20036;-53
2023/02/23 01:11:33;;;;;;;96.45;42.05;;;;;;;16.86;100.00;101139.38;5078671;28;19912;-50
2023/02/23 01:14:00;;;;;;;106.18;41.95;;;;;;;16.73;100.00;101146.59;5096816;28;20042;-53
2023/02/23 01:16:29;;;;;;;;;;;;;;;17.01;100.00;101141.66;5097283;28;20028;-50
2023/02/23 01:18:57;;;;;;;113.10;43.10;;;;;;;17.08;100.00;101136.19;5090847;28;19916;-51
2023/02/23 01:21:35;;;;;;;104.93;41.50;;;;;;;17.02;100.00;101133.31;5096220;28;20281;-52
2023/02/23 01:24:02;;;;;;;112.47;44.90;;;;;;;17.08;100.00;101136.97;5081104;28;20269;-51
2023/02/23 01:26:32;;;;;;;101.13;39.90;;;;;;;17.15;100.00;101132.28;5078717;28;20348;-50
2023/02/23 01:29:04;;;;;;;114.80;43.13;;;;;;;17.12;100.00;101137.34;5096547;28;20036;-50
2023/02/23 01:31:29;;;;;;;107.83;42.73;;;;;;;16.99;100.00;101141.09;5101783;28;20268;-51
2023/02/23 01:33:58;;;;;;;104.00;41.63;;;;;;;16.96;100.00;101145.03;5095235;28;20331;-51
2023/02/23 01:36:27;;;;;;;113.43;43.13;;;;;;;17.30;100.00;101150.78;5078610;28;20039;-51
2023/02/23 01:38:55;;;;;;;108.80;41.30;;;;;;;17.28;100.00;101147.47;5096002;28;20273;-53
2023/02/23 01:41:22;;;;;;;107.60;43.67;;;;;;;17.17;100.00;101150.97;5105064;28;20265;-51
2023/02/23 01:44:03;;;;;;;108.80;42.57;;;;;;;17.25;100.00;101149.81;5101142;28;20253;-53
2023/02/23 01:46:33;;;;;;;105.00;42.37;;;;;;;17.28;100.00;101147.47;5101765;28;20291;-53
2023/02/23 01:48:59;;;;;;;108.03;44.17;;;;;;;17.30;100.00;101155.34;5080902;28;20269;-52
2023/02/23 01:51:30;;;;;;;103.82;41.88;;;;;;;17.36;100.00;101153.59;5098992;28;20272;-53
2023/02/23 01:54:06;;;;;;;98.53;42.80;;;;;;;17.17;100.00;101149.09;5083702;28;20036;-49
2023/02/23 01:56:42;;;;;;;104.40;41.67;;;;;;;17.13;100.00;101152.50;5099290;28;20325;-51
2023/02/23 01:59:11;;;;;;;106.07;43.57;;;;;;;17.13;100.00;101149.81;5082994;28;20269;-50
2023/02/23 02:01:39;;;;;;;114.50;44.93;;;;;;;17.13;100.00;101141.69;5080172;28;20273;-53
2023/02/23 02:04:07;;;;;;;99.73;42.40;;;;;;;17.20;100.00;101145.94;5095324;28;20258;-54
2023/02/23 02:06:35;;;;;;;108.00;44.37;;;;;;;17.11;100.00;101151.91;5085598;28;20345;-53
2023/02/23 02:09:08;;;;;;;110.53;45.07;;;;;;;17.22;100.00;101150.28;5078597;28;20296;-54
2023/02/23 02:11:37;;;;;;;111.67;44.80;;;;;;;17.25;100.00;101153.34;5099965;28;20269;-54
2023/02/23 02:14:17;;;;;;;104.13;43.00;;;;;;;17.19;100.00;101148.88;5082846;28;20348;-53
2023/02/23 02:17:08;;;;;;;112.57;43.47;;;;;;;17.10;100.00;101155.69;5080585;28;20296;-54
2023/02/23 02:19:42;;;;;;;114.27;44.53;;;;;;;16.97;100.00;101152.06;5084673;28;20273;-53
2023/02/23 02:22:26;;;;;;;102.70;43.92;;;;;;;17.10;100.00;101155.69;5097936;28;20254;-54
2023/02/23 02:25:02;;;;;;;108.00;44.77;;;;;;;17.17;100.00;101150.97;5083753;28;20032;-51
2023/02/23 02:27:29;;;;;;;;;;;;;;;17.13;100.00;101149.81;5085942;28;20276;-52
2023/02/23 02:30:19;;;;;;;103.97;40.63;;;;;;;17.10;100.00;101144.88;5083744;28;19916;-53
2023/02/23 02:33:03;;;;;;;113.03;43.80;;;;;;;17.10;100.00;101156.47;5101759;28;20089;-56
2023/02/23 02:35:36;;;;;;;112.80;43.80;;;;;;;17.02;100.00;101149.53;5102117;28;20289;-51
2023/02/23 02:38:32;;;;;;;114.93;44.70;;;;;;;16.80;100.00;101151.91;5083214;28;20292;-54
2023/02/23 02:41:29;;;;;;;112.47;44.13;;;;;;;17.04;100.00;101150.13;5095355;28;20261;-48
2023/02/23 02:44:02;;;;;;;110.77;42.83;;;;;;;17.09;100.00;101152.13;5072253;28;20308;-52
2023/02/23 02:46:35;;;;;;;117.67;45.53;;;;;;;16.94;100.00;101146.31;5101346;28;20284;-52
2023/02/23 02:49:30;;;;;;;115.13;46.13;;;;;;;16.94;100.00;101146.31;5098066;28;20332;-52
2023/02/23 02:52:22;;;;;;;120.47;46.73;;;;;;;17.04;100.00;101155.53;5097354;28;20265;-52
2023/02/23 02:54:55;;;;;;;115.03;44.97;;;;;;;17.03;100.00;101147.66;5094522;28;20258;-53
2023/02/23 02:57:24;;;;;;;107.40;43.87;;;;;;;17.04;100.00;101147.41;5085619;28;20264;-52
2023/02/23 04:17:41;;;;;;;129.53;48.80;;;;;;;16.28;100.00;101188.28;5103279;28;20273;-51
2023/02/23 04:20:08;;;;;;;128.55;46.80;;;;;;;16.11;100.00;101187.22;5095074;28;20269;-54
2023/02/23 04:22:34;;;;;;;120.80;47.33;;;;;;;16.37;100.00;101190.69;5079739;28;20035;-52
2023/02/23 04:25:00;;;;;;;134.45;47.25;;;;;;;15.88;100.00;101183.28;5097925;28;20270;-50
2023/02/23 04:27:26;;;;;;;180.50;50.33;;;;;;;16.23;100.00;101190.00;5094904;28;20029;-51
2023/02/23 04:29:51;;;;;;;133.37;48.80;;;;;;;16.28;100.00;101187.44;5100263;28;20047;-49
2023/02/23 04:32:19;;;;;;;130.73;48.17;;;;;;;16.35;100.00;101185.50;5098681;28;20311;-53
2023/02/23 04:34:45;;;;;;;127.97;47.87;;;;;;;16.14;100.00;101184.88;5099324;28;20048;-53
2023/02/23 04:37:11;;;;;;;139.40;47.73;;;;;;;16.32;100.00;101184.09;5096535;28;20287;-50
2023/02/23 04:39:37;;;;;;;121.93;44.78;;;;;;;16.20;100.00;101186.72;5094551;28;20039;-48
2023/02/23 04:42:03;;;;;;;122.27;45.70;;;;;;;16.45;100.00;101187.66;5100977;28;20033;-51
2023/02/23 04:44:29;;;;;;;154.43;49.67;;;;;;;16.82;100.00;101187.63;5100823;28;20024;-52
2023/02/23 04:46:55;;;;;;;138.57;47.03;;;;;;;16.60;100.00;101196.22;5097203;28;20058;-50
2023/02/23 04:49:22;;;;;;;135.50;44.90;;;;;;;16.20;100.00;101185.88;5099446;28;20059;-51
2023/02/23 04:51:47;;;;;;;136.68;46.80;;;;;;;16.71;100.00;101185.66;5102142;28;20257;-55
2023/02/23 04:54:13;;;;;;;141.67;49.90;;;;;;;16.47;100.00;101193.66;5097198;28;20039;-53
2023/02/23 04:56:39;;;;;;;136.60;48.20;;;;;;;16.66;100.00;101199.03;5095623;28;20112;-52
2023/02/23 04:59:04;;;;;;;128.15;45.30;;;;;;;16.76;100.00;101197.44;5094669;28;20115;-49
2023/02/23 05:01:31;;;;;;;122.65;45.60;;;;;;;16.46;100.00;101194.72;5096684;28;20050;-53
2023/02/23 05:03:58;;;;;;;137.40;47.90;;;;;;;16.61;100.00;101197.03;5094779;28;20032;-52
2023/02/23 05:06:23;;;;;;;129.77;44.53;;;;;;;16.53;100.00;101189.25;5096966;28;20273;-53
2023/02/23 05:08:49;;;;;;;139.73;48.33;;;;;;;16.29;100.00;101195.34;5103638;28;20279;-52
2023/02/23 05:11:14;;;;;;;135.57;45.70;;;;;;;16.24;100.00;101197.84;5097456;28;20100;-51
2023/02/23 05:13:40;;;;;;;133.45;45.50;;;;;;;16.36;100.00;101194.44;5098903;28;20032;-50
2023/02/23 05:16:06;;;;;;;125.77;45.47;;;;;;;16.28;100.00;101199.09;5082733;28;20032;-52
2023/02/23 05:18:32;;;;;;;130.82;46.60;;;;;;;16.60;100.00;101206.16;5102261;28;20039;-51
2023/02/23 05:21:06;;;;;;;136.00;46.87;;;;;;;16.58;100.00;101202.88;5099390;28;20078;-49
2023/02/23 05:23:33;;;;;;;151.50;51.37;;;;;;;16.53;100.00;101208.13;5101827;28;20029;-52
2023/02/23 05:26:01;;;;;;;136.67;47.00;;;;;;;16.05;100.00;101202.44;5103220;28;20277;-48
2023/02/23 05:28:27;;;;;;;145.60;49.43;;;;;;;16.54;100.00;101207.91;5100460;28;20261;-51
2023/02/23 05:30:52;;;;;;;151.37;50.53;;;;;;;16.26;100.00;101211.97;5100450;28;20340;-49
2023/02/23 05:33:18;;;;;;;150.80;49.07;;;;;;;16.25;100.00;101210.31;5102058;28;20277;-51
2023/02/23 05:35:44;;;;;;;163.50;50.30;;;;;;;16.34;100.00;101217.06;5103181;28;20043;-54
2023/02/23 05:38:09;;;;;;;114.43;37.97;;;;;;;16.34;100.00;101213.53;5102416;28;20051;-49
2023/02/23 05:40:37;;;;;;;135.03;48.30;;;;;;;16.15;100.00;101210.84;5096461;28;20076;-49
2023/02/23 05:43:02;;;;;;;145.15;48.45;;;;;;;16.02;100.00;101208.28;5080370;28;20273;-50
2023/02/23 05:45:27;;;;;;;152.03;50.37;;;;;;;16.13;100.00;101212.91;5102619;28;20087;-54
2023/02/23 05:47:53;;;;;;;143.77;48.42;;;;;;;16.07;100.00;101208.44;5096652;28;20108;-51
2023/02/23 05:50:19;;;;;;;146.25;50.17;;;;;;;15.90;100.00;101206.28;5105623;28;20036;-49
2023/02/23 05:52:45;;;;;;;147.77;47.13;;;;;;;16.15;100.00;101213.56;5099885;28;20171;-53
2023/02/23 05:55:10;;;;;;;152.40;46.40;;;;;;;16.25;100.00;101214.91;5097148;28;20269;-53
2023/02/23 05:57:36;;;;;;;152.50;49.07;;;;;;;16.26;100.00;101213.84;5097180;28;20039;-50
2023/02/23 06:00:05;;;;;;;132.63;44.63;;;;;;;16.25;100.00;101214.91;5106372;28;20268;-55
2023/02/23 06:02:31;;;;;;;141.30;48.60;;;;;;;16.10;100.00;101213.38;5099382;28;20096;-54
2023/02/23 06:04:57;;;;;;;163.55;49.30;;;;;;;16.28;100.00;101219.84;5104386;28;20320;-52
2023/02/23 06:07:22;;;;;;;141.65;46.90;;;;;;;16.13;100.00;101222.91;5098783;28;20060;-54
2023/02/23 06:09:47;;;;;;;142.10;46.13;;;;;;;16.17;100.00;101219.53;5100128;28;20032;-51
2023/02/23 06:12:13;;;;;;;146.30;48.03;;;;;;;15.85;100.00;101227.69;5098389;28;20329;-54
2023/02/23 06:14:39;;;;;;;130.83;45.70;;;;;;;15.97;100.00;101235.09;5097577;28;20276;-50
2023/02/23 06:17:04;;;;;;;137.67;47.23;;;;;;;15.82;100.00;101232.72;5102579;28;20046;-49
2023/02/23 06:19:30;;;;;;;141.07;46.40;;;;;;;16.19;100.00;101235.50;5100192;28;20059;-53
2023/02/23 06:21:56;;;;;;;159.07;48.10;;;;;;;16.22;100.00;101243.13;5095971;28;20070;-49
2023/02/23 06:24:22;;;;;;;131.80;46.70;;;;;;;16.07;100.00;101237.28;5098883;28;20060;-52
2023/02/23 06:26:49;;;;;;;133.37;47.13;;;;;;;16.12;100.00;101245.53;5099650;28;20035;-50
2023/02/23 06:29:15;;;;;;;137.85;46.20;;;;;;;15.74;100.00;101250.00;5102779;28;20273;-53
2023/02/23 06:31:41;;;;;;;133.13;45.40;;;;;;;15.82;100.00;101238.91;5099632;28;20058;-50
2023/02/23 06:34:07;;;;;;;137.48;46.83;;;;;;;15.86;100.00;101245.50;5103921;28;20025;-50
2023/02/23 06:36:33;;;;;;;140.80;43.55;;;;;;;16.12;100.00;101246.34;5083670;28;20038;-52
2023/02/23 06:38:58;;;;;;;138.63;47.97;;;;;;;15.89;100.00;101255.09;5101071;28;20056;-51
2023/02/23 06:41:25;;;;;;;126.05;45.15;;;;;;;16.24;100.00;101256.41;5100379;28;20035;-53
2023/02/23 06:43:51;;;;;;;134.00;45.08;;;;;;;16.17;100.00;101261.88;5099685;28;20047;-51
2023/02/23 06:46:17;;;;;;;132.90;44.85;;;;;;;16.27;100.00;101258.66;5099916;28;20029;-52
2023/02/23 06:48:43;;;;;;;132.15;45.33;;;;;;;16.35;100.00;101266.47;5096769;28;20070;-51
2023/02/23 06:51:08;;;;;;;142.37;44.90;;;;;;;16.24;100.00;101262.63;5081611;28;20032;-49
2023/02/23 06:53:34;;;;;;;126.63;44.10;;;;;;;16.44;100.00;101267.00;5097328;28;20265;-50
2023/02/23 06:56:00;;;;;;;132.55;42.80;;;;;;;16.44;100.00;101270.53;5101302;28;21287;-51
2023/02/23 06:58:27;;;;;;;132.68;45.13;;;;;;;16.49;100.00;101267.97;5103525;28;20040;-51
2023/02/23 07:00:55;;;;;;;130.83;44.07;;;;;;;16.37;100.00;101271.66;5099102;28;20487;-53
2023/02/23 07:03:22;;;;;;;136.57;44.60;;;;;;;16.47;100.00;101278.19;5104415;28;20262;-52
2023/02/23 07:05:49;;;;;;;132.77;44.57;;;;;;;16.47;100.00;101272.78;5101601;28;20407;-53
2023/02/23 07:08:17;;;;;;;126.03;43.92;;;;;;;16.52;100.00;101279.38;5105034;28;20268;-53
2023/02/23 07:10:44;;;;;;;132.83;46.10;;;;;;;16.26;100.00;101279.44;5100722;28;20067;-50
2023/02/23 07:13:11;;;;;;;129.25;42.78;;;;;;;16.25;100.00;101283.16;5097177;28;20289;-52
2023/02/23 07:15:38;;;;;;;129.67;43.27;;;;;;;16.15;100.00;101282.88;5101985;28;20040;-52
2023/02/23 07:18:04;;;;;;;128.00;44.33;;;;;;;16.57;100.00;101287.63;5101439;28;20390;-53
2023/02/23 07:20:30;;;;;;;128.75;43.83;;;;;;;16.46;100.00;101290.03;5099906;28;20290;-53
2023/02/23 07:22:56;;;;;;;135.45;42.13;;;;;;;16.53;100.00;101291.81;5101142;28;20036;-52
2023/02/23 07:25:21;;;;;;;131.32;44.72;;;;;;;16.45;100.00;101291.06;5104808;28;20036;-50
2023/02/23 07:27:47;;;;;;;123.43;43.72;;;;;;;16.30;100.00;101302.25;5104221;28;20032;-52
2023/02/23 07:30:13;;;;;;;120.60;44.03;;;;;;;16.34;100.00;101302.59;5100000;28;20029;-51
2023/02/23 07:32:39;;;;;;;127.03;44.17;;;;;;;16.38;100.00;101311.09;5100964;28;20043;-54
2023/02/23 07:35:05;;;;;;;131.52;43.58;;;;;;;16.78;100.00;101314.19;5104406;28;20040;-53
2023/02/23 07:37:30;;;;;;;127.78;45.55;;;;;;;16.82;100.00;101316.41;5100891;28;20048;-52
2023/02/23 07:39:56;;;;;;;126.15;44.53;;;;;;;16.59;100.00;101317.91;5097913;28;20043;-50
2023/02/23 07:42:21;;;;;;;128.82;43.47;;;;;;;16.47;100.00;101318.66;5099689;28;20047;-52
2023/02/23 07:44:47;;;;;;;125.93;43.40;;;;;;;16.56;100.00;101323.78;5098912;28;20032;-54
2023/02/23 07:47:12;;;;;;;123.37;42.73;;;;;;;16.83;100.00;101326.19;5095149;28;20060;-52
2023/02/23 07:49:38;;;;;;;136.83;46.00;;;;;;;16.44;100.00;101329.06;5097414;28;20273;-54
2023/02/23 07:52:03;;;;;;;122.33;43.80;;;;;;;17.21;100.00;101341.34;5102800;28;20300;-52
2023/02/23 07:54:29;;;;;;;127.10;44.85;;;;;;;16.90;100.00;101337.75;5095686;28;20100;-54
2023/02/23 07:56:55;;;;;;;125.10;43.10;;;;;;;16.90;100.00;101341.25;5102105;28;20036;-53
2023/02/23 07:59:21;;;;;;;119.00;42.97;;;;;;;16.87;100.00;101338.19;5097368;28;20032;-52
2023/02/23 08:01:46;;;;;;;117.43;45.53;;;;;;;16.81;100.00;101339.91;5101097;28;20032;-55
2023/02/23 08:04:12;;;;;;;122.77;42.00;;;;;;;17.06;100.00;101339.84;5103908;28;20338;-52
2023/02/23 08:06:37;;;;;;;111.50;41.83;;;;;;;16.99;100.00;101341.00;5100264;28;20295;-51
2023/02/23 08:09:03;;;;;;;131.93;47.13;;;;;;;16.96;100.00;101349.53;5080241;28;20100;-54
2023/02/23 08:11:29;;;;;;;120.97;44.20;;;;;;;16.85;100.00;101351.09;5099508;28;20033;-55
2023/02/23 08:13:58;;;;;;;124.55;43.00;;;;;;;16.83;100.00;101362.13;5094211;28;20058;-49
2023/02/23 08:16:29;;;;;;;125.20;44.40;;;;;;;16.64;100.00;101364.00;5102841;28;20091;-54
2023/02/23 08:18:57;;;;;;;132.83;46.10;;;;;;;16.85;100.00;101361.91;5100633;28;20282;-52
2023/02/23 08:21:23;;;;;;;134.53;43.50;;;;;;;16.90;100.00;101373.69;5097249;28;20282;-54
2023/02/23 08:23:48;;;;;;;117.28;40.85;;;;;;;16.67;100.00;101366.25;5094937;28;20277;-50
2023/02/23 08:26:14;;;;;;;137.05;44.13;;;;;;;16.71;100.00;101370.16;5098109;28;20036;-52
2023/02/23 08:28:40;;;;;;;115.97;42.90;;;;;;;16.38;100.00;101363.22;5099042;28;20054;-48
2023/02/23 08:31:08;;;;;;;;;;;;;;;16.59;100.00;101371.91;5101024;28;20284;-55
2023/02/23 08:33:34;;;;;;;126.22;41.80;;;;;;;16.82;100.00;101378.53;5094937;28;19912;-54
2023/02/23 08:36:01;;;;;;;125.90;43.25;;;;;;;16.72;100.00;101376.34;5094074;28;20037;-53
2023/02/23 08:38:26;;;;;;;128.50;43.83;;;;;;;16.69;100.00;101384.91;5095808;28;20036;-52
2023/02/23 08:40:53;;;;;;;126.73;42.10;;;;;;;16.47;100.00;101380.75;5099810;28;20269;-50
2023/02/23 08:43:18;;;;;;;123.60;43.33;;;;;;;16.52;100.00;101381.97;5095510;28;20043;-52
2023/02/23 08:45:44;;;;;;;132.20;44.60;;;;;;;16.31;100.00;101379.47;5097863;28;20282;-54
2023/02/23 08:48:10;;;;;;;124.60;41.95;;;;;;;16.38;100.00;101387.50;5097169;28;20032;-49
2023/02/23 08:50:35;;;;;;;125.80;42.53;;;;;;;16.42;100.00;101386.00;5102160;28;20064;-51
2023/02/23 08:53:03;;;;;;;129.05;40.90;;;;;;;16.39;100.00;101389.16;5100769;28;20036;-53
2023/02/23 08:55:28;;;;;;;115.80;40.17;;;;;;;17.02;100.00;101387.28;5101540;28;20054;-49
2023/02/23 08:57:54;;;;;;;130.68;43.10;;;;;;;16.82;100.00;101387.50;5102839;28;20266;-51
2023/02/23 09:00:20;;;;;;;128.50;41.67;;;;;;;16.64;100.00;101391.00;5081736;28;20059;-48
2023/02/23 09:02:48;;;;;;;112.35;42.50;;;;;;;16.46;100.00;101392.59;5101937;28;20070;-54
2023/02/23 09:05:15;;;;;;;116.40;42.23;;;;;;;16.87;100.00;101393.03;5103052;28;20120;-54
2023/02/23 09:07:43;;;;;;;117.30;39.33;;;;;;;17.04;100.00;101397.88;5100164;28;20382;-52
2023/02/23 09:10:15;;;;;;;110.57;39.77;;;;;;;16.89;100.00;101401.75;5102476;28;20044;-51
2023/02/23 09:12:41;;;;;;;110.97;38.77;;;;;;;16.96;100.00;101403.56;5099395;28;20283;-52
2023/02/23 09:15:08;;;;;;;120.23;42.77;;;;;;;17.03;100.00;101405.16;5100684;28;20270;-52
2023/02/23 09:17:33;;;;;;;113.60;40.15;;;;;;;17.03;100.00;101407.84;5101320;28;20276;-51
2023/02/23 09:19:59;;;;;;;117.57;39.97;;;;;;;17.00;100.00;101416.41;5105685;28;20028;-53
2023/02/23 09:22:25;;;;;;;112.70;41.47;;;;;;;16.74;100.00;101412.91;5097456;28;20052;-53
2023/02/23 09:24:50;;;;;;;119.97;41.40;;;;;;;17.11;100.00;101422.13;5102410;28;20299;-52
2023/02/23 09:27:15;;;;;;;112.53;37.57;;;;;;;17.09;100.00;101418.84;5102035;28;20048;-52
2023/02/23 09:29:42;;;;;;;112.87;39.30;;;;;;;17.27;100.00;101424.22;5102523;28;20048;-51
2023/02/23 09:32:08;;;;;;;104.53;37.57;;;;;;;17.17;100.00;101432.03;5107812;28;20033;-51
2023/02/23 09:34:33;;;;;;;104.72;38.83;;;;;;;17.13;100.00;101426.25;5098513;28;20307;-52
2023/02/23 09:37:01;;;;;;;114.23;39.43;;;;;;;17.56;100.00;101429.06;5097099;28;20032;-51
2023/02/23 09:39:27;;;;;;;116.37;39.40;;;;;;;17.17;100.00;101423.94;5095418;28;20047;-51
2023/02/23 09:42:23;;;;;;;123.72;41.83;;;;;;;16.87;100.00;101425.44;5104540;28;20269;-52
2023/02/23 09:45:03;;;;;;;110.33;40.03;;;;;;;17.31;100.00;101433.53;5105761;28;20044;-54
2023/02/23 09:47:40;;;;;;;127.67;42.67;;;;;;;17.09;100.00;101440.47;5099120;28;20269;-50
2023/02/23 09:50:16;;;;;;;114.00;40.33;;;;;;;17.14;100.00;101444.13;5096213;28;20344;-50
2023/02/23 09:52:46;;;;;;;118.45;39.30;;;;;;;17.53;100.00;101435.78;5102807;28;20046;-54
2023/02/23 09:55:14;;;;;;;119.40;38.83;;;;;;;17.59;100.00;101439.44;5098902;28;20039;-50
2023/02/23 09:57:43;;;;;;;125.87;39.57;;;;;;;17.41;100.00;101443.00;5100465;28;20281;-54
2023/02/23 10:00:24;;;;;;;113.87;37.93;;;;;;;17.43;100.00;101452.53;5091915;28;20283;-50
2023/02/23 10:03:07;;;;;;;109.33;39.53;;;;;;;17.57;100.00;101449.66;5098234;28;20265;-48
2023/02/23 10:05:39;;;;;;;111.60;39.33;;;;;;;17.67;100.00;101449.13;5099930;28;20292;-52
2023/02/23 10:08:13;;;;;;;109.33;37.17;;;;;;;17.45;100.00;101445.03;5101615;28;20273;-52
2023/02/23 10:11:09;;;;;;;110.70;38.83;;;;;;;17.58;100.00;101438.63;5100055;28;20268;-51
2023/02/23 10:13:56;;;;;;;104.20;35.43;;;;;;;17.30;100.00;101442.72;5098330;28;20260;-52
2023/02/23 10:16:26;;;;;;;111.47;39.57;;;;;;;17.76;100.00;101428.78;5095164;28;20268;-50
2023/02/23 10:19:11;;;;;;;105.27;36.50;;;;;;;17.20;100.00;101440.53;5078808;28;20277;-52
2023/02/23 10:21:41;;;;;;;96.83;35.70;;;;;;;17.55;100.00;101432.84;5100084;28;20358;-52
2023/02/23 10:24:15;;;;;;;95.43;35.73;;;;;;;17.63;100.00;101438.75;5094660;28;20273;-55
2023/02/23 10:26:53;;;;;;;95.17;32.43;;;;;;;17.54;100.00;101448.25;5103541;28;20284;-53
2023/02/23 10:29:25;;;;;;;93.87;33.53;;;;;;;17.46;100.00;101452.09;5099226;28;20294;-54
2023/02/23 10:31:56;;;;;;;100.13;35.70;;;;;;;18.03;100.00;101452.81;5100338;28;20273;-52
2023/02/23 10:34:25;;;;;;;88.30;33.10;;;;;;;17.90;100.00;101454.63;5097862;28;20277;-50
2023/02/23 10:37:03;;;;;;;94.07;32.53;;;;;;;18.16;100.00;101451.81;5079165;28;20286;-53
2023/02/23 10:39:30;;;;;;;82.77;31.60;;;;;;;18.15;100.00;101456.38;5099208;28;20292;-50
2023/02/23 10:42:06;;;;;;;86.57;31.57;;;;;;;18.28;100.00;101459.94;5100850;28;20269;-51
2023/02/23 10:44:32;;;;;;;88.65;33.50;;;;;;;18.15;100.00;101461.78;5095925;28;20262;-51
2023/02/23 10:47:13;;;;;;;88.38;34.70;;;;;;;17.91;100.00;101461.69;5100545;28;20060;-54
2023/02/23 10:50:08;;;;;;;81.00;31.47;;;;;;;18.33;100.00;101465.50;5093619;28;20074;-53
2023/02/23 10:52:45;;;;;;;75.40;31.83;;;;;;;18.24;100.00;101461.47;5092288;28;20276;-50
2023/02/23 10:55:31;;;;;;;79.55;30.20;;;;;;;18.32;100.00;101466.56;5101796;28;20292;-52
2023/02/23 10:58:03;;;;;;;82.63;31.03;;;;;;;18.23;100.00;101463.34;5097810;28;20032;-54
2023/02/23 11:00:32;;;;;;;73.10;29.83;;;;;;;18.40;100.00;101465.38;5114207;28;20268;-53
2023/02/23 11:03:03;;;;;;;66.23;28.07;;;;;;;18.23;100.00;101463.34;5096117;28;20288;-51
2023/02/23 11:05:44;;;;;;;73.07;29.70;;;;;;;18.74;100.00;101463.78;5099828;28;20273;-51
2023/02/23 11:08:20;;;;;;;68.33;26.97;;;;;;;18.87;100.00;101462.72;5099282;28;20348;-53
2023/02/23 11:11:00;;;;;;;66.05;27.52;;;;;;;18.79;100.00;101471.19;5097700;28;20277;-54
2023/02/23 11:13:32;;;;;;;59.13;25.60;;;;;;;18.88;100.00;101468.94;5100439;28;20073;-53
2023/02/23 11:16:11;;;;;;;63.93;26.57;;;;;;;18.71;100.00;101474.25;5101053;28;20252;-54
2023/02/23 11:18:55;;;;;;;52.93;24.43;;;;;;;18.96;100.00;101471.31;5097428;28;20257;-53
2023/02/23 11:21:32;;;;;;;56.93;23.80;;;;;;;18.75;100.00;101468.13;5096783;28;20283;-50
2023/02/23 11:24:00;;;;;;;;;;;;;;;18.73;100.00;101464.00;5096697;28;20299;-51
2023/02/23 11:26:38;;;;;;;56.70;22.67;;;;;;;18.79;100.00;101452.22;5099241;28;19943;-55
2023/02/23 11:29:34;;;;;;;52.20;23.37;;;;;;;18.25;100.00;101458.53;5101266;28;20327;-54
2023/02/23 11:32:07;;;;;;;50.77;21.97;;;;;;;18.60;100.00;101455.06;5093845;28;20293;-51
2023/02/23 11:34:42;;;;;;;53.70;21.83;;;;;;;19.01;100.00;101466.03;5104648;28;20281;-50
2023/02/23 11:37:22;;;;;;;48.00;20.67;;;;;;;18.71;100.00;101466.97;5104846;28;20267;-53
2023/02/23 11:39:58;;;;;;;47.83;22.30;;;;;;;18.43;100.00;101460.31;5099335;28;20261;-51
2023/02/23 11:42:34;;;;;;;47.88;21.30;;;;;;;18.03;100.00;101463.66;5095410;28;20358;-53
2023/02/23 11:45:03;;;;;;;50.33;21.55;;;;;;;18.37;100.00;101471.28;5098022;28;20087;-52
2023/02/23 11:47:31;;;;;;;45.53;19.40;;;;;;;19.13;100.00;101463.31;5097878;28;20062;-50
2023/02/23 11:49:58;;;;;;;41.03;19.53;;;;;;;18.96;100.00;101479.44;5097484;28;20269;-51
2023/02/23 11:52:26;;;;;;;45.63;20.40;;;;;;;19.28;100.00;101470.94;5096660;28;20269;-49
2023/02/23 11:54:56;;;;;;;43.50;19.87;;;;;;;19.15;100.00;101477.44;5094305;28;20187;-53
2023/02/23 11:57:33;;;;;;;48.90;20.67;;;;;;;19.00;100.00;101479.81;5096415;28;20273;-50
2023/02/23 12:00:08;;;;;;;42.43;19.63;;;;;;;18.64;100.00;101471.66;5099676;28;20280;-52
2023/02/23 12:02:54;;;;;;;43.77;19.63;;;;;;;19.13;100.00;101467.91;5096885;28;20317;-53
2023/02/23 12:05:37;;;;;;;49.70;21.43;;;;;;;18.76;100.00;101464.38;5095115;28;20285;-53
2023/02/23 12:08:10;;;;;;;45.83;20.43;;;;;;;18.75;100.00;101462.72;5098622;28;20261;-50
2023/02/23 12:10:56;;;;;;;42.70;20.33;;;;;;;18.08;100.00;101452.13;5099679;28;20279;-52
2023/02/23 12:13:29;;;;;;;40.47;18.08;;;;;;;18.19;100.00;101454.03;5096613;28;20281;-53
2023/02/23 12:15:58;;;;;;;41.93;19.53;;;;;;;18.69;100.00;101463.66;5100431;28;20088;-55
2023/02/23 12:18:49;;;;;;;40.50;17.37;;;;;;;18.90;100.00;101456.81;5096815;28;20342;-50
2023/02/23 12:21:40;;;;;;;45.00;18.37;;;;;;;18.95;100.00;101458.00;5098942;28;20276;-55
2023/02/23 12:24:32;;;;;;;35.33;16.20;;;;;;;19.24;100.00;101456.22;5095113;28;20503;-54
2023/02/23 12:27:25;;;;;;;36.33;15.90;;;;;;;19.04;99.11;101460.13;5095351;28;20311;-49